createdAt,value
2023-12-12T00:02:26.209Z,67.22
2023-12-12T00:04:53.004Z,59.55
2023-12-12T00:07:22.940Z,62.17
2023-12-12T00:09:49.731Z,61.22
2023-12-12T00:12:16.787Z,59.60
2023-12-12T00:14:47.728Z,61.53
2023-12-12T00:17:14.834Z,56.95
2023-12-12T00:19:44.781Z,62.70
2023-12-12T00:22:15.472Z,59.28
2023-12-12T00:24:42.344Z,59.67
2023-12-12T00:27:09.415Z,61.70
2023-12-12T00:29:37.222Z,57.03
2023-12-12T00:32:07.896Z,57.40
2023-12-12T00:34:38.785Z,64.03
2023-12-12T00:37:08.791Z,55.65
2023-12-12T00:39:40.303Z,63.00
2023-12-12T00:42:13.179Z,55.63
2023-12-12T00:44:40.057Z,56.28
2023-12-12T00:47:07.133Z,66.57
2023-12-12T00:49:37.098Z,60.35
2023-12-12T00:52:05.513Z,59.10
2023-12-12T00:54:37.568Z,60.60
2023-12-12T00:57:05.009Z,58.45
2023-12-12T00:59:31.769Z,60.83
2023-12-12T01:01:58.950Z,53.60
2023-12-12T01:04:25.827Z,62.35
2023-12-12T01:06:55.961Z,58.13
2023-12-12T01:09:22.754Z,62.75
2023-12-12T01:11:49.800Z,56.88
2023-12-12T01:14:16.621Z,67.80
2023-12-12T01:16:43.809Z,53.22
2023-12-12T01:19:10.756Z,59.67
2023-12-12T01:21:38.388Z,62.10
2023-12-12T01:24:05.400Z,54.67
2023-12-12T01:26:32.477Z,54.03
2023-12-12T01:28:59.355Z,57.75
2023-12-12T01:31:29.276Z,55.60
2023-12-12T01:33:56.207Z,60.85
2023-12-12T01:36:23.429Z,59.35
2023-12-12T01:38:50.546Z,57.03
2023-12-12T01:41:18.636Z,58.55
2023-12-12T01:43:47.862Z,58.00
2023-12-12T01:46:17.943Z,60.15
2023-12-12T01:48:45.328Z,60.80
2023-12-12T01:51:12.702Z,55.97
2023-12-12T01:53:44.307Z,53.60
2023-12-12T01:56:12.860Z,55.60
2023-12-12T01:58:42.078Z,57.30
2023-12-12T02:01:09.959Z,56.92
2023-12-12T02:03:37.721Z,60.65
2023-12-12T02:06:06.574Z,50.85
2023-12-12T02:08:33.680Z,54.85
2023-12-12T02:11:00.853Z,54.03
2023-12-12T02:13:33.612Z,51.15
2023-12-12T02:16:00.838Z,52.15
2023-12-12T02:18:28.332Z,59.17
2023-12-12T02:20:55.773Z,52.75
2023-12-12T02:23:25.557Z,54.25
2023-12-12T02:25:52.693Z,52.50
2023-12-12T02:28:19.547Z,53.53
2023-12-12T02:30:46.606Z,56.65
2023-12-12T02:33:13.479Z,54.00
2023-12-12T02:35:40.738Z,55.15
2023-12-12T02:38:07.565Z,51.95
2023-12-12T02:40:35.017Z,55.28
2023-12-12T02:43:01.911Z,55.03
2023-12-12T02:45:28.986Z,53.90
2023-12-12T02:47:55.852Z,50.17
2023-12-12T02:50:24.941Z,52.85
2023-12-12T02:52:53.861Z,53.90
2023-12-12T02:55:21.024Z,59.25
2023-12-12T02:57:47.919Z,48.20
2023-12-12T03:00:15.469Z,55.50
2023-12-12T03:02:42.344Z,50.08
2023-12-12T03:05:09.570Z,52.97
2023-12-12T03:07:37.020Z,56.28
2023-12-12T03:10:05.153Z,52.35
2023-12-12T03:12:32.345Z,49.72
2023-12-12T03:14:59.428Z,49.88
2023-12-12T03:17:30.011Z,56.17
2023-12-12T03:19:57.287Z,58.00
2023-12-12T03:22:24.206Z,60.30
2023-12-12T03:24:51.352Z,53.45
2023-12-12T03:27:21.186Z,51.30
2023-12-12T03:29:51.092Z,50.40
2023-12-12T03:32:18.200Z,49.35
2023-12-12T03:34:45.407Z,49.45
2023-12-12T03:37:16.776Z,49.15
2023-12-12T03:39:43.918Z,47.53
2023-12-12T03:42:13.431Z,56.75
2023-12-12T03:44:43.354Z,53.47
2023-12-12T03:47:11.393Z,56.63
2023-12-12T03:49:41.508Z,57.50
2023-12-12T03:52:08.641Z,55.97
2023-12-12T03:54:36.470Z,52.72
2023-12-12T03:57:04.355Z,54.20
2023-12-12T03:59:31.479Z,52.42
2023-12-12T04:01:58.653Z,53.60
2023-12-12T04:04:27.319Z,56.33
2023-12-12T04:06:54.227Z,48.88
2023-12-12T04:09:21.592Z,50.90
2023-12-12T04:11:51.138Z,48.78
2023-12-12T04:14:19.530Z,47.75
2023-12-12T04:16:47.952Z,53.35
2023-12-12T04:19:15.105Z,51.53
2023-12-12T04:21:45.336Z,50.53
2023-12-12T04:24:12.730Z,49.45
2023-12-12T04:26:39.573Z,50.80
2023-12-12T04:29:06.741Z,49.63
2023-12-12T04:31:33.597Z,51.10
2023-12-12T04:34:00.792Z,53.88
2023-12-12T04:36:28.064Z,48.85
2023-12-12T04:38:55.177Z,42.50
2023-12-12T04:41:22.320Z,45.00
2023-12-12T04:43:49.391Z,53.20
2023-12-12T04:46:20.685Z,47.38
2023-12-12T04:48:48.139Z,52.15
2023-12-12T04:51:15.312Z,47.05
2023-12-12T04:53:45.346Z,50.55
2023-12-12T04:56:13.107Z,48.88
2023-12-12T04:58:43.378Z,49.35
2023-12-12T05:01:10.512Z,52.75
2023-12-12T05:03:37.680Z,54.20
2023-12-12T05:06:04.999Z,46.40
2023-12-12T05:08:32.205Z,45.80
2023-12-12T05:10:59.948Z,43.20
2023-12-12T05:13:27.281Z,44.05
2023-12-12T05:15:57.485Z,47.20
2023-12-12T05:18:26.243Z,47.22
2023-12-12T05:20:54.046Z,53.88
2023-12-12T05:23:21.094Z,63.75
2023-12-12T05:25:48.002Z,60.45
2023-12-12T05:28:18.220Z,56.25
2023-12-12T05:30:48.283Z,64.97
2023-12-12T05:33:15.480Z,76.78
2023-12-12T05:35:42.394Z,64.72
2023-12-12T05:38:09.480Z,63.97
2023-12-12T05:40:39.394Z,47.80
2023-12-12T05:43:06.494Z,54.55
2023-12-12T05:45:33.962Z,54.97
2023-12-12T05:48:01.223Z,48.83
2023-12-12T05:50:28.163Z,53.88
2023-12-12T05:52:57.362Z,50.90
2023-12-12T05:55:25.209Z,52.92
2023-12-12T05:57:52.480Z,44.30
2023-12-12T06:00:22.394Z,47.50
2023-12-12T06:02:52.812Z,46.35
2023-12-12T06:05:20.758Z,49.28
2023-12-12T06:07:51.859Z,48.38
2023-12-12T06:10:20.677Z,50.50
2023-12-12T06:12:48.820Z,54.97
2023-12-12T06:15:15.769Z,48.42
2023-12-12T06:17:45.648Z,54.45
2023-12-12T06:20:13.162Z,48.28
2023-12-12T06:22:40.369Z,49.60
2023-12-12T06:25:07.870Z,49.58
2023-12-12T06:27:35.441Z,50.78
2023-12-12T06:30:02.627Z,49.55
2023-12-12T06:32:31.215Z,53.42
2023-12-12T06:34:58.293Z,51.58
2023-12-12T06:37:25.393Z,61.92
2023-12-12T06:39:55.657Z,56.40
2023-12-12T06:42:22.776Z,59.45
2023-12-12T06:44:49.899Z,56.75
2023-12-12T06:47:17.032Z,57.28
2023-12-12T06:49:47.324Z,54.40
2023-12-12T06:52:14.666Z,59.67
2023-12-12T06:54:41.574Z,54.22
2023-12-12T06:57:12.060Z,49.95
2023-12-12T06:59:38.925Z,54.45
2023-12-12T07:02:09.787Z,63.47
2023-12-12T07:04:37.810Z,54.55
2023-12-12T07:07:05.989Z,59.70
2023-12-12T07:09:32.897Z,58.55
2023-12-12T07:14:47.529Z,58.60
2023-12-12T07:17:14.691Z,60.95
2023-12-12T07:19:41.678Z,62.60
2023-12-12T07:22:09.408Z,56.33
2023-12-12T07:24:44.106Z,66.60
2023-12-12T07:27:11.640Z,65.80
2023-12-12T07:29:38.913Z,62.25
2023-12-12T07:32:06.776Z,63.03
2023-12-12T07:34:33.705Z,65.90
2023-12-12T07:37:03.416Z,75.20
2023-12-12T07:39:31.793Z,61.03
2023-12-12T07:41:59.039Z,60.35
2023-12-12T07:44:26.246Z,56.05
2023-12-12T07:46:53.451Z,57.60
2023-12-12T07:49:21.463Z,69.38
2023-12-12T07:51:52.300Z,61.78
2023-12-12T07:54:19.196Z,58.42
2023-12-12T07:56:54.514Z,58.08
2023-12-12T07:59:21.455Z,53.78
2023-12-12T08:01:53.418Z,64.45
2023-12-12T08:04:20.966Z,63.90
2023-12-12T08:06:48.177Z,55.97
2023-12-12T08:09:15.060Z,58.08
2023-12-12T08:11:42.167Z,57.83
2023-12-12T08:14:11.873Z,53.67
2023-12-12T08:16:39.099Z,65.50
2023-12-12T08:19:06.078Z,57.30
2023-12-12T08:21:37.052Z,50.67
2023-12-12T08:24:07.271Z,49.08
2023-12-12T08:26:42.706Z,54.25
2023-12-12T08:29:10.568Z,57.90
2023-12-12T08:31:40.393Z,53.20
2023-12-12T08:34:07.466Z,56.45
2023-12-12T08:36:35.216Z,62.10
2023-12-12T08:39:02.408Z,57.90
2023-12-12T08:41:32.041Z,66.63
2023-12-12T08:44:00.952Z,60.50
2023-12-12T08:46:29.967Z,70.78
2023-12-12T08:48:58.002Z,65.95
2023-12-12T08:51:25.621Z,66.47
2023-12-12T08:53:53.671Z,72.43
2023-12-12T08:56:23.242Z,61.63
2023-12-12T08:58:52.243Z,61.90
2023-12-12T09:01:19.633Z,61.25
2023-12-12T09:03:47.298Z,61.78
2023-12-12T09:06:17.498Z,53.30
2023-12-12T09:08:45.269Z,60.55
2023-12-12T09:11:15.129Z,60.92
2023-12-12T09:13:43.963Z,48.33
2023-12-12T09:16:11.493Z,49.05
2023-12-12T09:18:39.059Z,54.05
2023-12-12T09:21:08.091Z,51.33
2023-12-12T09:23:35.847Z,51.22
2023-12-12T09:26:03.165Z,49.78
2023-12-12T09:28:30.070Z,47.80
2023-12-12T09:30:57.232Z,43.40
2023-12-12T09:33:24.574Z,38.67
2023-12-12T09:35:51.676Z,45.40
2023-12-12T09:38:18.504Z,42.67
2023-12-12T09:40:45.652Z,41.80
2023-12-12T09:43:16.477Z,36.10
2023-12-12T09:45:49.475Z,39.80
2023-12-12T09:48:18.252Z,38.57
2023-12-12T09:50:48.644Z,34.53
2023-12-12T09:53:16.257Z,35.42
2023-12-12T09:55:45.008Z,37.45
2023-12-12T09:58:12.960Z,36.72
2023-12-12T10:00:43.746Z,36.85
2023-12-12T10:03:14.238Z,34.05
2023-12-12T10:05:47.665Z,31.38
2023-12-12T10:08:16.029Z,31.05
2023-12-12T10:10:43.572Z,29.13
2023-12-12T10:13:10.822Z,35.83
2023-12-12T10:15:39.176Z,13.90
2023-12-12T10:18:06.773Z,19.73
2023-12-12T10:20:36.833Z,32.20
2023-12-12T10:23:05.855Z,17.73
2023-12-12T10:25:34.494Z,21.05
2023-12-12T10:28:02.727Z,18.52
2023-12-12T10:30:30.151Z,33.97
2023-12-12T10:32:57.325Z,32.83
2023-12-12T10:35:26.609Z,41.50
2023-12-12T10:37:55.953Z,33.85
2023-12-12T10:40:24.397Z,30.00
2023-12-12T10:42:52.389Z,29.10
2023-12-12T10:45:21.875Z,27.02
2023-12-12T10:47:51.685Z,31.35
2023-12-12T10:50:20.176Z,23.88
2023-12-12T10:52:49.198Z,29.50
2023-12-12T10:55:17.513Z,30.95
2023-12-12T10:57:46.578Z,23.63
2023-12-12T11:00:18.162Z,27.23
2023-12-12T11:02:47.489Z,29.23
2023-12-12T11:05:16.327Z,23.27
2023-12-12T11:07:47.814Z,25.27
2023-12-12T11:10:16.783Z,22.52
2023-12-12T11:12:52.239Z,26.42
2023-12-12T11:15:20.734Z,24.73
2023-12-12T11:17:49.442Z,21.23
2023-12-12T11:20:18.896Z,18.42
2023-12-12T11:22:51.991Z,17.27
2023-12-12T11:25:24.217Z,22.27
2023-12-12T11:27:57.095Z,21.67
2023-12-12T11:30:50.365Z,15.90
2023-12-12T11:33:17.391Z,18.92
2023-12-12T11:35:47.144Z,20.23
2023-12-12T11:38:34.787Z,15.65
2023-12-12T11:41:15.725Z,15.73
2023-12-12T11:43:46.834Z,20.20
2023-12-12T11:46:24.703Z,14.15
2023-12-12T11:48:51.801Z,13.00
2023-12-12T11:51:47.630Z,16.35
2023-12-12T11:54:23.177Z,14.63
2023-12-12T11:56:59.727Z,14.50
2023-12-12T11:59:30.544Z,26.52
2023-12-12T12:01:57.647Z,38.47
2023-12-12T12:04:24.581Z,32.97
2023-12-12T12:06:54.101Z,37.65
2023-12-12T12:09:20.987Z,37.20
2023-12-12T12:11:54.633Z,34.72
2023-12-12T12:14:23.395Z,28.85
2023-12-12T12:16:54.522Z,23.55
2023-12-12T12:19:34.519Z,24.88
2023-12-12T12:22:06.012Z,25.17
2023-12-12T12:24:34.532Z,25.88
2023-12-12T12:27:01.722Z,21.15
2023-12-12T12:29:28.544Z,23.00
2023-12-12T12:31:55.743Z,22.23
2023-12-12T12:34:25.191Z,22.88
2023-12-12T12:37:00.017Z,26.40
2023-12-12T12:39:27.924Z,26.55
2023-12-12T12:41:56.003Z,24.73
2023-12-12T12:44:23.221Z,27.42
2023-12-12T12:46:53.567Z,23.73
2023-12-12T12:49:21.624Z,20.98
2023-12-12T12:51:48.834Z,25.35
2023-12-12T12:54:16.752Z,22.23
2023-12-12T12:56:45.937Z,20.88
2023-12-12T12:59:19.426Z,23.60
2023-12-12T13:04:14.075Z,23.40
2023-12-12T13:06:41.757Z,21.55
2023-12-12T13:09:18.607Z,29.10
2023-12-12T13:11:48.902Z,27.95
2023-12-12T13:14:15.768Z,28.27
2023-12-12T13:16:45.277Z,26.98
2023-12-12T13:19:14.637Z,20.55
2023-12-12T13:21:42.171Z,20.75
2023-12-12T13:24:09.104Z,19.77
2023-12-12T13:26:39.140Z,26.23
2023-12-12T13:29:05.965Z,19.25
2023-12-12T13:31:33.772Z,19.45
2023-12-12T13:34:07.269Z,18.15
2023-12-12T13:36:34.925Z,18.40
2023-12-12T13:39:01.763Z,18.83
2023-12-12T13:41:29.007Z,19.73
2023-12-12T13:43:59.348Z,17.17
2023-12-12T13:46:26.629Z,22.25
2023-12-12T13:48:53.625Z,18.80
2023-12-12T13:51:25.326Z,19.08
2023-12-12T13:53:57.539Z,19.63
2023-12-12T13:56:25.424Z,15.38
2023-12-12T13:58:58.781Z,18.00
2023-12-12T14:01:31.259Z,16.70
2023-12-12T14:04:02.493Z,19.80
2023-12-12T14:06:35.168Z,12.20
2023-12-12T14:09:01.943Z,19.20
2023-12-12T14:11:30.122Z,23.25
2023-12-12T14:13:57.007Z,18.20
2023-12-12T14:16:28.801Z,24.50
2023-12-12T14:18:57.723Z,25.92
2023-12-12T14:21:26.021Z,17.52
2023-12-12T14:23:52.898Z,15.07
2023-12-12T14:26:23.315Z,17.92
2023-12-12T14:28:51.229Z,18.58
2023-12-12T14:31:19.444Z,15.30
2023-12-12T14:33:47.136Z,17.05
2023-12-12T14:36:15.457Z,14.15
2023-12-12T14:38:45.040Z,15.88
2023-12-12T14:41:12.388Z,21.73
2023-12-12T14:43:47.082Z,17.15
2023-12-12T14:46:22.253Z,17.33
2023-12-12T14:48:49.210Z,22.02
2023-12-12T14:51:23.829Z,13.73
2023-12-12T14:53:51.940Z,15.23
2023-12-12T14:56:19.237Z,17.60
2023-12-12T14:58:46.882Z,19.02
2023-12-12T15:01:14.465Z,18.02
2023-12-12T15:03:43.601Z,18.45
2023-12-12T15:06:11.143Z,18.73
2023-12-12T15:08:39.479Z,18.67
2023-12-12T15:11:07.027Z,25.77
2023-12-12T15:13:34.207Z,22.70
2023-12-12T15:16:04.528Z,23.77
2023-12-12T15:18:31.469Z,27.23
2023-12-12T15:21:02.874Z,25.40
2023-12-12T15:23:29.693Z,24.38
2023-12-12T15:25:58.372Z,20.48
2023-12-12T15:28:27.745Z,29.45
2023-12-12T15:30:57.533Z,22.98
2023-12-12T15:33:26.774Z,18.73
2023-12-12T15:35:57.440Z,22.25
2023-12-12T15:38:24.285Z,22.60
2023-12-12T15:40:52.380Z,18.38
2023-12-12T15:43:19.295Z,20.85
2023-12-12T15:45:46.420Z,21.95
2023-12-12T15:48:13.478Z,21.17
2023-12-12T15:50:41.924Z,20.23
2023-12-12T15:53:08.956Z,18.25
2023-12-12T15:55:36.124Z,19.10
2023-12-12T15:58:03.137Z,21.88
2023-12-12T16:00:33.042Z,26.40
2023-12-12T16:02:59.999Z,19.65
2023-12-12T16:05:27.621Z,20.00
2023-12-12T16:07:57.714Z,18.33
2023-12-12T16:10:24.819Z,18.02
2023-12-12T16:12:57.651Z,21.30
2023-12-12T16:15:25.250Z,22.88
2023-12-12T16:17:55.417Z,24.35
2023-12-12T16:20:27.174Z,21.83
2023-12-12T16:22:54.949Z,19.35
2023-12-12T16:25:28.067Z,23.67
2023-12-12T16:27:55.100Z,21.10
2023-12-12T16:30:32.077Z,21.00
2023-12-12T16:33:00.923Z,21.90
2023-12-12T16:35:31.883Z,26.67
2023-12-12T16:38:01.884Z,20.33
2023-12-12T16:40:29.042Z,25.52
2023-12-12T16:42:56.090Z,23.52
2023-12-12T16:45:23.133Z,20.48
2023-12-12T16:47:50.012Z,30.02
2023-12-12T16:50:21.373Z,23.10
2023-12-12T16:52:48.298Z,23.25
2023-12-12T16:55:15.692Z,26.90
2023-12-12T16:57:42.615Z,23.23
2023-12-12T17:00:12.097Z,23.20
2023-12-12T17:02:42.572Z,23.83
2023-12-12T17:05:12.898Z,26.73
2023-12-12T17:07:39.938Z,27.23
2023-12-12T17:10:10.204Z,25.98
2023-12-12T17:12:37.571Z,30.15
2023-12-12T17:15:07.811Z,29.02
2023-12-12T17:17:35.291Z,28.80
2023-12-12T17:20:03.620Z,29.67
2023-12-12T17:22:35.084Z,31.58
2023-12-12T17:25:02.199Z,30.50
2023-12-12T17:27:29.047Z,33.35
2023-12-12T17:29:56.126Z,34.10
2023-12-12T17:32:28.006Z,27.02
2023-12-12T17:35:00.005Z,28.52
2023-12-12T17:37:27.027Z,24.73
2023-12-12T17:39:54.171Z,36.00
2023-12-12T17:42:25.899Z,32.33
2023-12-12T17:44:53.750Z,29.58
2023-12-12T17:47:20.628Z,31.45
2023-12-12T17:49:47.794Z,27.90
2023-12-12T17:52:16.152Z,29.55
2023-12-12T17:54:43.382Z,30.08
2023-12-12T17:57:11.622Z,28.13
2023-12-12T17:59:42.186Z,26.27
2023-12-12T18:02:12.274Z,23.90
2023-12-12T18:04:41.006Z,25.42
2023-12-12T18:07:12.122Z,24.23
2023-12-12T18:09:40.746Z,31.27
2023-12-12T18:12:08.044Z,34.42
2023-12-12T18:14:35.177Z,29.77
2023-12-12T18:17:04.998Z,28.80
2023-12-12T18:19:32.984Z,28.15
2023-12-12T18:21:59.926Z,33.40
2023-12-12T18:24:30.037Z,29.83
2023-12-12T18:26:58.493Z,38.78
2023-12-12T18:29:27.095Z,35.95
2023-12-12T18:31:54.691Z,33.25
2023-12-12T18:34:30.765Z,43.03
2023-12-12T18:36:57.730Z,32.88
2023-12-12T18:39:27.526Z,36.97
2023-12-12T18:41:56.862Z,37.63
2023-12-12T18:44:23.979Z,36.08
2023-12-12T18:46:51.326Z,38.67
2023-12-12T18:49:18.675Z,41.88
2023-12-12T18:51:45.598Z,38.60
2023-12-12T18:54:15.562Z,38.92
2023-12-12T18:56:44.927Z,39.33
2023-12-12T18:59:12.354Z,42.00
2023-12-12T19:01:39.313Z,36.92
2023-12-12T19:04:08.127Z,40.13
2023-12-12T19:06:37.952Z,37.15
2023-12-12T19:09:07.937Z,40.03
2023-12-12T19:11:40.146Z,38.80
2023-12-12T19:14:07.211Z,37.85
2023-12-12T19:16:37.583Z,42.10
2023-12-12T19:19:04.800Z,36.60
2023-12-12T19:21:31.697Z,41.28
2023-12-12T19:23:58.791Z,40.75
2023-12-12T19:26:25.874Z,42.47
2023-12-12T19:28:55.264Z,40.95
2023-12-12T19:31:22.216Z,43.22
2023-12-12T19:33:49.452Z,46.15
2023-12-12T19:36:16.688Z,45.28
2023-12-12T19:38:43.794Z,41.33
2023-12-12T19:41:10.796Z,42.15
2023-12-12T19:43:38.017Z,39.85
2023-12-12T19:46:09.020Z,44.42
2023-12-12T19:48:37.458Z,49.40
2023-12-12T19:51:07.324Z,47.38
2023-12-12T19:53:39.656Z,43.58
2023-12-12T19:56:06.800Z,44.35
2023-12-12T19:58:36.612Z,47.00
2023-12-12T20:01:03.640Z,45.88
2023-12-12T20:03:31.627Z,44.38
2023-12-12T20:06:03.623Z,44.72
2023-12-12T20:08:34.501Z,41.15
2023-12-12T20:11:05.038Z,45.58
2023-12-12T20:13:32.191Z,46.40
2023-12-12T20:15:59.026Z,42.55
2023-12-12T20:18:27.256Z,42.85
2023-12-12T20:20:54.176Z,50.05
2023-12-12T20:23:22.299Z,45.05
2023-12-12T20:25:49.215Z,50.05
2023-12-12T20:28:19.057Z,50.10
2023-12-12T20:30:52.073Z,56.30
2023-12-12T20:33:22.073Z,41.45
2023-12-12T20:35:48.919Z,44.13
2023-12-12T20:38:16.440Z,38.75
2023-12-12T20:40:43.427Z,45.28
2023-12-12T20:43:10.956Z,51.72
2023-12-12T20:45:38.956Z,43.95
2023-12-12T20:48:09.009Z,51.95
2023-12-12T20:50:44.576Z,46.35
2023-12-12T20:53:11.845Z,55.22
2023-12-12T20:55:41.391Z,51.88
2023-12-12T20:58:18.283Z,54.58
2023-12-12T21:00:45.547Z,53.50
2023-12-12T21:03:13.397Z,50.67
2023-12-12T21:05:41.527Z,52.83
2023-12-12T21:08:08.702Z,55.88
2023-12-12T21:10:37.452Z,58.13
2023-12-12T21:13:07.594Z,54.90
2023-12-12T21:15:34.523Z,53.72
2023-12-12T21:18:01.784Z,54.38
2023-12-12T21:20:29.747Z,51.75
2023-12-12T21:22:57.103Z,62.92
2023-12-12T21:25:24.002Z,58.83
2023-12-12T21:27:51.490Z,61.20
2023-12-12T21:30:19.472Z,59.13
2023-12-12T21:32:47.494Z,52.67
2023-12-12T21:35:14.386Z,57.28
2023-12-12T21:37:44.602Z,56.67
2023-12-12T21:40:12.311Z,48.83
2023-12-12T21:42:39.566Z,48.33
2023-12-12T21:45:06.805Z,54.50
2023-12-12T21:47:34.291Z,52.90
2023-12-12T21:50:01.432Z,49.88
2023-12-12T21:52:30.825Z,47.90
2023-12-12T21:54:57.935Z,46.13
2023-12-12T21:57:26.060Z,44.17
2023-12-12T21:59:55.641Z,46.13
2023-12-12T22:02:23.210Z,54.30
2023-12-12T22:04:54.054Z,46.15
2023-12-12T22:07:24.186Z,46.03
2023-12-12T22:09:51.072Z,49.95
2023-12-12T22:12:19.227Z,47.08
2023-12-12T22:14:46.199Z,48.28
2023-12-12T22:17:14.508Z,53.30
2023-12-12T22:19:54.498Z,51.47
2023-12-12T22:22:28.474Z,43.40
2023-12-12T22:24:55.284Z,45.05
2023-12-12T22:27:22.389Z,55.97
2023-12-12T22:29:51.991Z,45.88
2023-12-12T22:32:20.404Z,54.95
2023-12-12T22:34:47.244Z,45.25
2023-12-12T22:37:14.334Z,47.03
2023-12-12T22:39:43.780Z,48.25
2023-12-12T22:42:11.087Z,43.90
2023-12-12T22:44:37.945Z,45.45
2023-12-12T22:47:05.175Z,53.17
2023-12-12T22:49:32.138Z,46.13
2023-12-12T22:51:59.475Z,50.80
2023-12-12T22:54:26.250Z,43.15
2023-12-12T22:56:56.345Z,39.13
2023-12-12T22:59:24.445Z,37.65
2023-12-12T23:01:52.515Z,42.30
2023-12-12T23:04:19.409Z,43.15
2023-12-12T23:06:47.314Z,45.75
2023-12-12T23:09:16.324Z,41.78
2023-12-12T23:11:43.435Z,42.90
2023-12-12T23:14:10.246Z,48.33
2023-12-12T23:16:40.265Z,40.20
2023-12-12T23:19:07.582Z,42.35
2023-12-12T23:21:37.030Z,41.25
2023-12-12T23:24:05.792Z,44.25
2023-12-12T23:26:35.222Z,43.03
2023-12-12T23:29:02.080Z,41.15
2023-12-12T23:31:29.776Z,38.08
2023-12-12T23:33:56.818Z,39.50
2023-12-12T23:36:23.956Z,43.35
2023-12-12T23:38:50.821Z,43.35
2023-12-12T23:41:17.910Z,43.55
2023-12-12T23:43:47.915Z,44.55
2023-12-12T23:46:17.980Z,40.83
2023-12-12T23:48:44.791Z,48.40
2023-12-12T23:51:21.309Z,42.30
2023-12-12T23:53:48.230Z,38.65
2023-12-12T23:56:15.361Z,44.80
2023-12-12T23:58:42.380Z,42.33
